Time;durP1;ratioP1;P1;durP2;ratioP2;P2;SDS_P1;SDS_P2;PMS_P1;PMS_P2;Temp;Humidity;BMP_temperature;BMP_pressure;BME280_temperature;BME280_humidity;BME280_pressure;Samples;Min_cycle;Max_cycle;Signal;HPM_P1;HPM_P2
2023/05/07 00:01:45;;;;;;;29.90;24.50;;;10.40;88.60;;;;;;5071997;28;20028;-46
2023/05/07 00:04:13;;;;;;;26.58;21.77;;;10.40;88.50;;;;;;5074767;28;20414;-47
2023/05/07 00:06:40;;;;;;;30.15;24.02;;;10.40;88.60;;;;;;5079040;28;20071;-46
2023/05/07 00:09:08;;;;;;;27.15;22.88;;;10.40;88.50;;;;;;5063015;28;20470;-46
2023/05/07 00:11:34;;;;;;;26.60;23.70;;;10.40;88.40;;;;;;5083704;28;20048;-47
2023/05/07 00:14:06;;;;;;;26.75;23.85;;;10.40;88.40;;;;;;5073973;28;20032;-46
2023/05/07 00:16:33;;;;;;;25.50;21.83;;;10.50;88.60;;;;;;5072821;28;20033;-46
2023/05/07 00:18:59;;;;;;;29.30;22.85;;;10.40;88.50;;;;;;5071166;28;20028;-48
2023/05/07 00:21:26;;;;;;;23.83;20.25;;;10.40;88.40;;;;;;5073674;28;20021;-46
2023/05/07 00:23:56;;;;;;;25.52;22.23;;;10.40;88.10;;;;;;5058398;28;20417;-46
2023/05/07 00:26:23;;;;;;;26.60;22.05;;;10.40;88.20;;;;;;5076059;28;20056;-48
2023/05/07 00:28:53;;;;;;;25.00;22.27;;;10.40;88.30;;;;;;5074208;28;20043;-47
2023/05/07 00:31:20;;;;;;;26.55;22.20;;;10.40;88.20;;;;;;5077668;28;20043;-47
2023/05/07 00:33:49;;;;;;;23.35;20.50;;;10.40;88.10;;;;;;5076056;28;20221;-47
2023/05/07 00:36:18;;;;;;;27.48;22.23;;;10.40;88.30;;;;;;5060801;28;20525;-46
2023/05/07 00:38:48;;;;;;;24.23;21.52;;;10.40;88.30;;;;;;5072539;28;20036;-49
2023/05/07 00:41:15;;;;;;;22.85;20.38;;;10.40;88.20;;;;;;5079439;28;20032;-48
2023/05/07 00:43:42;;;;;;;24.05;20.42;;;10.40;88.10;;;;;;5065034;28;20029;-46
2023/05/07 00:46:09;;;;;;;24.58;20.95;;;10.40;88.10;;;;;;5048525;28;20028;-45
2023/05/07 00:48:37;;;;;;;23.55;19.95;;;10.30;87.90;;;;;;5077524;28;20028;-46
2023/05/07 00:51:04;;;;;;;24.42;20.63;;;10.30;88.10;;;;;;5062753;28;20362;-47
2023/05/07 00:53:31;;;;;;;24.02;20.70;;;10.30;88.40;;;;;;5077105;28;20354;-46
2023/05/07 00:55:58;;;;;;;23.85;19.83;;;10.30;88.30;;;;;;5079252;28;20028;-46
2023/05/07 00:58:25;;;;;;;22.35;19.27;;;10.30;88.10;;;;;;5073825;28;20058;-46
2023/05/07 01:00:54;;;;;;;18.98;16.98;;;10.30;88.20;;;;;;5075483;28;20043;-47
2023/05/07 01:03:21;;;;;;;20.48;18.38;;;10.30;88.00;;;;;;5079707;28;20037;-50
2023/05/07 01:05:53;;;;;;;20.35;18.27;;;10.30;88.10;;;;;;5072981;28;20032;-45
2023/05/07 01:08:22;;;;;;;24.02;18.95;;;10.30;88.20;;;;;;5071008;28;20381;-46
2023/05/07 01:10:49;;;;;;;22.55;19.00;;;10.30;88.30;;;;;;5063169;28;20117;-48
2023/05/07 01:13:18;;;;;;;22.70;19.83;;;10.30;88.30;;;;;;5074182;28;20029;-45
2023/05/07 01:15:45;;;;;;;20.75;17.50;;;10.30;88.30;;;;;;5053485;28;20354;-46
2023/05/07 01:18:11;;;;;;;24.70;20.38;;;10.30;88.30;;;;;;5067451;28;20036;-46
2023/05/07 01:20:40;;;;;;;26.23;20.42;;;10.30;88.40;;;;;;5062265;28;20049;-46
2023/05/07 01:23:07;;;;;;;25.20;19.75;;;10.30;88.20;;;;;;5069496;28;20055;-46
2023/05/07 01:25:34;;;;;;;21.00;17.63;;;10.20;88.10;;;;;;5072961;28;20035;-46
2023/05/07 01:28:02;;;;;;;22.42;18.77;;;10.20;88.00;;;;;;5065394;28;20029;-48
2023/05/07 01:30:30;;;;;;;20.95;18.75;;;10.30;88.10;;;;;;5064626;28;20025;-47
2023/05/07 01:33:01;;;;;;;24.08;21.00;;;10.20;88.20;;;;;;5065223;28;20461;-45
2023/05/07 01:35:35;;;;;;;23.20;20.27;;;10.20;88.10;;;;;;5060970;28;20315;-45
2023/05/07 01:38:05;;;;;;;21.67;19.38;;;10.10;88.40;;;;;;5079305;28;20048;-48
2023/05/07 01:40:31;;;;;;;20.40;18.00;;;10.20;88.40;;;;;;5068588;28;20036;-48
2023/05/07 01:42:57;;;;;;;22.83;19.60;;;10.20;88.40;;;;;;5066477;28;20028;-50
2023/05/07 01:45:26;;;;;;;22.20;18.63;;;10.20;88.30;;;;;;5062052;28;20119;-50
2023/05/07 01:47:52;;;;;;;22.70;18.88;;;10.20;88.30;;;;;;5073994;28;20037;-48
2023/05/07 01:50:20;;;;;;;22.48;19.13;;;10.20;88.10;;;;;;5069348;28;20115;-47
2023/05/07 01:52:46;;;;;;;21.90;18.23;;;10.10;88.20;;;;;;5049470;28;20041;-46
2023/05/07 01:55:12;;;;;;;20.58;18.50;;;10.10;88.20;;;;;;5040575;28;20032;-46
2023/05/07 01:57:39;;;;;;;22.30;19.05;;;10.10;88.40;;;;;;5054974;28;20047;-48
2023/05/07 02:00:08;;;;;;;19.00;17.02;;;10.10;88.10;;;;;;5072234;28;20502;-46
2023/05/07 02:02:35;;;;;;;17.48;15.63;;;10.00;88.20;;;;;;5085249;28;20334;-47
2023/05/07 02:05:02;;;;;;;18.55;16.55;;;10.00;88.20;;;;;;5082614;28;20055;-47
2023/05/07 02:07:28;;;;;;;16.70;14.95;;;10.10;88.20;;;;;;5060215;28;20064;-48
2023/05/07 02:09:55;;;;;;;18.95;16.77;;;10.00;88.20;;;;;;5068869;28;20445;-47
2023/05/07 02:12:22;;;;;;;20.20;16.45;;;9.90;88.20;;;;;;5081515;28;20442;-46
2023/05/07 02:14:49;;;;;;;18.88;16.65;;;10.00;88.20;;;;;;5067216;28;20021;-47
2023/05/07 02:17:16;;;;;;;18.33;16.40;;;9.90;88.20;;;;;;5056730;28;20033;-49
2023/05/07 02:19:43;;;;;;;22.05;16.13;;;9.90;88.20;;;;;;5068173;28;20416;-46
2023/05/07 02:22:10;;;;;;;18.88;16.83;;;9.90;88.20;;;;;;5089256;28;20081;-48
2023/05/07 02:24:37;;;;;;;18.42;15.95;;;9.90;88.00;;;;;;5070031;28;20036;-46
2023/05/07 02:27:04;;;;;;;18.88;16.77;;;9.90;88.10;;;;;;5064982;28;20040;-45
2023/05/07 02:29:34;;;;;;;20.52;18.42;;;9.90;87.90;;;;;;5072746;28;20085;-47
2023/05/07 02:32:01;;;;;;;19.10;17.10;;;9.80;88.10;;;;;;5070266;28;20415;-47
2023/05/07 02:34:30;;;;;;;18.75;16.70;;;9.90;88.10;;;;;;5066809;28;20036;-45
2023/05/07 02:36:57;;;;;;;21.67;16.92;;;9.90;88.20;;;;;;5075852;28;20358;-45
2023/05/07 02:39:24;;;;;;;20.00;17.90;;;9.90;88.40;;;;;;5072206;28;20032;-46
2023/05/07 02:41:50;;;;;;;21.05;18.23;;;9.80;88.10;;;;;;5044694;28;20115;-47
2023/05/07 02:44:19;;;;;;;19.65;17.65;;;9.80;88.40;;;;;;5052470;28;20419;-46
2023/05/07 02:46:46;;;;;;;19.70;17.53;;;9.80;88.50;;;;;;5068669;28;20115;-46
2023/05/07 02:49:12;;;;;;;20.50;17.95;;;9.90;88.60;;;;;;5069563;28;20044;-46
2023/05/07 02:51:38;;;;;;;20.75;18.58;;;9.80;88.20;;;;;;5079545;28;20028;-46
2023/05/07 02:54:07;;;;;;;21.45;19.15;;;9.80;88.50;;;;;;5071211;28;20450;-46
2023/05/07 02:56:36;;;;;;;20.97;17.43;;;9.90;88.40;;;;;;5069805;28;20025;-47
2023/05/07 02:59:03;;;;;;;21.33;18.25;;;9.80;88.40;;;;;;5065666;28;20314;-45
2023/05/07 03:01:30;;;;;;;20.02;17.83;;;9.80;88.30;;;;;;5078786;28;20123;-46
2023/05/07 03:03:57;;;;;;;20.25;18.15;;;9.70;88.20;;;;;;5044136;28;20028;-47
2023/05/07 03:06:24;;;;;;;20.75;18.17;;;9.70;88.40;;;;;;5071007;28;20021;-46
2023/05/07 03:08:50;;;;;;;21.77;19.17;;;9.60;88.20;;;;;;5055486;28;20140;-48
2023/05/07 03:11:16;;;;;;;19.98;17.38;;;9.60;88.30;;;;;;5067481;28;20032;-46
2023/05/07 03:13:43;;;;;;;19.35;17.17;;;9.60;88.50;;;;;;5057976;28;20045;-47
2023/05/07 03:16:10;;;;;;;19.55;17.45;;;9.50;88.60;;;;;;5075247;28;20035;-46
2023/05/07 03:18:36;;;;;;;20.02;17.88;;;9.60;88.40;;;;;;5063005;28;20047;-50
2023/05/07 03:21:03;;;;;;;19.63;17.48;;;9.50;88.30;;;;;;5063169;28;20031;-46
2023/05/07 03:23:30;;;;;;;18.48;16.10;;;9.60;88.30;;;;;;5063191;28;20032;-46
2023/05/07 03:25:56;;;;;;;18.83;16.83;;;9.60;88.50;;;;;;5081556;28;20033;-47
2023/05/07 03:28:25;;;;;;;21.33;18.55;;;9.60;88.50;;;;;;5049152;28;20028;-48
2023/05/07 03:30:52;;;;;;;20.67;17.52;;;9.60;88.50;;;;;;5068910;28;20086;-46
2023/05/07 03:33:19;;;;;;;21.55;19.15;;;9.60;88.70;;;;;;5075852;28;20062;-47
2023/05/07 03:35:45;;;;;;;21.58;19.13;;;9.70;88.70;;;;;;5065153;28;20326;-46
2023/05/07 03:38:14;;;;;;;25.70;23.00;;;9.70;88.60;;;;;;5069951;28;20024;-46
2023/05/07 03:40:41;;;;;;;22.90;20.40;;;9.70;88.80;;;;;;5076932;28;20023;-46
2023/05/07 03:43:06;;;;;;;21.70;19.42;;;9.70;88.90;;;;;;5064041;28;20033;-48
2023/05/07 03:45:33;;;;;;;22.00;19.60;;;9.70;88.50;;;;;;5076283;28;20093;-48
2023/05/07 03:48:00;;;;;;;20.27;18.17;;;9.70;88.60;;;;;;5069795;28;20040;-48
2023/05/07 03:50:26;;;;;;;19.85;17.13;;;9.60;88.60;;;;;;5062560;28;20047;-45
2023/05/07 03:52:53;;;;;;;17.48;15.23;;;9.60;88.60;;;;;;5082335;28;20035;-48
2023/05/07 03:55:19;;;;;;;20.58;17.58;;;9.60;88.30;;;;;;5079852;28;20052;-46
2023/05/07 03:57:45;;;;;;;18.58;16.13;;;9.50;88.30;;;;;;5076437;28;20057;-46
2023/05/07 04:00:14;;;;;;;22.83;17.98;;;9.50;88.50;;;;;;5077375;28;20453;-46
2023/05/07 04:02:40;;;;;;;19.77;15.43;;;9.60;88.60;;;;;;5080289;28;20024;-48
2023/05/07 04:05:10;;;;;;;17.23;15.07;;;9.50;88.70;;;;;;5074040;28;20033;-46
2023/05/07 04:07:37;;;;;;;19.15;17.13;;;9.50;88.40;;;;;;5072960;28;20465;-46
2023/05/07 04:10:04;;;;;;;19.70;17.60;;;9.60;88.40;;;;;;5065968;28;20048;-50
2023/05/07 04:12:31;;;;;;;26.92;24.02;;;9.50;88.40;;;;;;5071471;28;20044;-46
2023/05/07 04:14:58;;;;;;;28.60;24.85;;;9.60;88.60;;;;;;5073696;28;20086;-46
2023/05/07 04:17:26;;;;;;;24.95;22.25;;;9.50;88.40;;;;;;5056416;28;20365;-49
2023/05/07 04:19:53;;;;;;;23.92;20.42;;;9.50;88.40;;;;;;5074662;28;20051;-47
2023/05/07 04:22:19;;;;;;;23.83;18.48;;;9.50;88.30;;;;;;5074696;28;20042;-46
2023/05/07 04:24:46;;;;;;;21.58;18.50;;;9.40;88.40;;;;;;5066040;28;20131;-45
2023/05/07 04:27:12;;;;;;;26.75;17.85;;;9.50;88.60;;;;;;5074576;28;20028;-45
2023/05/07 04:29:42;;;;;;;22.45;18.00;;;9.50;88.50;;;;;;5074362;28;20341;-47
2023/05/07 04:32:12;;;;;;;19.40;17.30;;;9.50;88.50;;;;;;5056385;28;20033;-45
2023/05/07 04:34:38;;;;;;;20.83;18.55;;;9.40;88.70;;;;;;5066652;28;20112;-46
2023/05/07 04:37:03;;;;;;;19.35;16.73;;;9.50;88.80;;;;;;5073512;28;20458;-45
2023/05/07 04:39:32;;;;;;;18.98;16.50;;;9.40;88.90;;;;;;5069250;28;20033;-46
2023/05/07 04:42:02;;;;;;;20.98;16.67;;;9.50;89.00;;;;;;5049221;28;20481;-45
2023/05/07 04:44:31;;;;;;;20.48;17.63;;;9.50;88.80;;;;;;5073023;28;20036;-48
2023/05/07 04:46:57;;;;;;;17.50;14.77;;;9.50;88.90;;;;;;5073071;28;20028;-46
2023/05/07 04:49:24;;;;;;;20.15;16.27;;;9.50;88.90;;;;;;5056153;28;20048;-47
2023/05/07 04:51:51;;;;;;;18.85;16.70;;;9.50;88.80;;;;;;5071722;28;20386;-46
2023/05/07 04:54:18;;;;;;;19.90;15.55;;;9.50;88.60;;;;;;5071995;28;20116;-45
2023/05/07 04:56:45;;;;;;;19.08;14.80;;;9.50;88.70;;;;;;5064111;28;20029;-46
2023/05/07 04:59:11;;;;;;;16.90;14.40;;;9.50;88.60;;;;;;5067176;28;20064;-45
2023/05/07 05:01:38;;;;;;;16.95;14.00;;;9.50;88.60;;;;;;5065432;28;20028;-46
2023/05/07 05:04:05;;;;;;;15.77;12.93;;;9.60;88.60;;;;;;5075445;28;20025;-47
2023/05/07 05:06:32;;;;;;;16.25;13.40;;;9.60;88.30;;;;;;5049603;28;20399;-45
2023/05/07 05:08:58;;;;;;;16.55;14.13;;;9.60;88.20;;;;;;5070753;28;20060;-46
2023/05/07 05:11:27;;;;;;;14.65;12.73;;;9.70;88.10;;;;;;5071006;28;20457;-45
2023/05/07 05:13:54;;;;;;;13.43;11.32;;;9.60;87.80;;;;;;5073225;28;20101;-46
2023/05/07 05:16:20;;;;;;;16.02;13.85;;;9.60;87.80;;;;;;5053528;28;20024;-48
2023/05/07 05:18:47;;;;;;;14.40;12.73;;;9.70;87.70;;;;;;5070909;28;20024;-46
2023/05/07 05:21:14;;;;;;;14.15;11.75;;;9.70;87.50;;;;;;5073957;28;20021;-46
2023/05/07 05:23:41;;;;;;;12.73;11.43;;;9.70;87.50;;;;;;5073318;28;20104;-46
2023/05/07 05:26:08;;;;;;;17.85;11.98;;;9.80;87.30;;;;;;5074192;28;20033;-46
2023/05/07 05:28:35;;;;;;;15.43;11.82;;;9.70;87.10;;;;;;5055127;28;20031;-48
2023/05/07 05:31:02;;;;;;;13.05;11.32;;;9.80;87.10;;;;;;5062675;28;20056;-46
2023/05/07 05:33:27;;;;;;;13.02;10.57;;;9.70;86.80;;;;;;5066312;28;20032;-46
2023/05/07 05:35:57;;;;;;;12.50;11.18;;;9.80;86.80;;;;;;5073464;28;20028;-47
2023/05/07 05:38:24;;;;;;;;;;;9.80;86.60;;;;;;5060374;28;20078;-47
2023/05/07 05:40:51;;;;;;;11.98;10.75;;;9.80;86.20;;;;;;5069936;28;19998;-45
2023/05/07 05:43:17;;;;;;;14.52;11.13;;;9.80;86.70;;;;;;5078313;28;20465;-48
2023/05/07 05:45:44;;;;;;;11.43;9.98;;;9.80;86.40;;;;;;5065554;28;20105;-47
2023/05/07 05:48:11;;;;;;;11.40;10.20;;;9.90;86.30;;;;;;5072247;28;20028;-46
2023/05/07 05:50:38;;;;;;;12.20;10.93;;;9.90;86.30;;;;;;5070247;28;20024;-46
2023/05/07 05:53:03;;;;;;;10.93;9.80;;;9.90;86.10;;;;;;5054697;28;20113;-46
2023/05/07 05:55:32;;;;;;;11.40;10.27;;;9.90;85.90;;;;;;5077713;28;20070;-46
2023/05/07 05:58:00;;;;;;;12.30;11.00;;;9.90;86.20;;;;;;5073752;28;20016;-46
2023/05/07 06:00:28;;;;;;;12.05;10.43;;;10.00;86.10;;;;;;5076403;28;20131;-51
2023/05/07 06:02:53;;;;;;;11.65;10.45;;;10.10;86.00;;;;;;5046426;28;20025;-47
2023/05/07 06:05:20;;;;;;;13.02;11.52;;;10.20;85.80;;;;;;5072860;28;20040;-46
2023/05/07 06:07:46;;;;;;;12.45;10.52;;;10.20;85.30;;;;;;5076971;28;20028;-48
2023/05/07 06:10:12;;;;;;;11.00;9.75;;;10.20;85.30;;;;;;5069361;28;20185;-46
2023/05/07 06:12:40;;;;;;;12.68;11.35;;;10.20;84.70;;;;;;5060565;28;20116;-46
2023/05/07 06:15:06;;;;;;;11.70;9.98;;;10.20;84.60;;;;;;5070970;28;20028;-46
2023/05/07 06:17:34;;;;;;;12.90;10.82;;;10.20;84.70;;;;;;5053663;28;20051;-47
2023/05/07 06:20:00;;;;;;;11.65;9.75;;;10.20;84.80;;;;;;5070526;28;20020;-45
2023/05/07 06:22:28;;;;;;;11.80;10.60;;;10.20;84.70;;;;;;5054063;28;20036;-47
2023/05/07 06:24:55;;;;;;;11.68;10.15;;;10.20;84.60;;;;;;5070538;28;20044;-48
2023/05/07 06:27:21;;;;;;;12.60;11.23;;;10.10;84.50;;;;;;5070784;28;20028;-48
2023/05/07 06:29:49;;;;;;;11.15;9.93;;;10.10;85.20;;;;;;5069849;28;20024;-46
2023/05/07 06:32:18;;;;;;;11.82;9.95;;;10.20;85.00;;;;;;5069531;28;20434;-46
2023/05/07 06:34:45;;;;;;;11.20;10.00;;;10.30;84.80;;;;;;5078305;28;20037;-47
2023/05/07 06:37:12;;;;;;;12.30;11.00;;;10.30;84.70;;;;;;5072960;28;20074;-48
2023/05/07 06:39:38;;;;;;;10.25;9.15;;;10.30;84.00;;;;;;5072055;28;20123;-46
2023/05/07 06:42:05;;;;;;;11.50;10.30;;;10.30;84.10;;;;;;5073195;28;20031;-47
2023/05/07 06:44:32;;;;;;;11.20;10.00;;;10.30;83.60;;;;;;5081211;28;20024;-49
2023/05/07 06:46:59;;;;;;;10.40;9.40;;;10.30;84.20;;;;;;5082247;28;20028;-48
2023/05/07 06:49:25;;;;;;;12.10;10.30;;;10.30;83.90;;;;;;5063898;28;20082;-46
2023/05/07 06:51:55;;;;;;;13.00;10.18;;;10.40;84.20;;;;;;5037119;28;20465;-49
2023/05/07 06:54:22;;;;;;;10.95;9.70;;;10.40;83.90;;;;;;5069150;28;20024;-48
2023/05/07 06:56:49;;;;;;;11.40;9.90;;;10.50;83.70;;;;;;5071156;28;20450;-46
2023/05/07 06:59:19;;;;;;;11.95;9.93;;;10.50;83.80;;;;;;5054806;28;20083;-46
2023/05/07 07:01:45;;;;;;;12.05;10.05;;;10.50;83.40;;;;;;5073848;28;20039;-48
2023/05/07 07:04:13;;;;;;;12.07;10.65;;;10.60;83.20;;;;;;5076203;28;20032;-46
2023/05/07 07:06:40;;;;;;;12.20;10.63;;;10.60;83.40;;;;;;5072015;28;20070;-46
2023/05/07 07:09:06;;;;;;;10.98;9.55;;;10.70;83.70;;;;;;5094094;28;20582;-48
2023/05/07 07:11:31;;;;;;;10.98;9.88;;;10.80;83.50;;;;;;5081241;28;20043;-49
2023/05/07 07:13:58;;;;;;;11.35;9.70;;;10.90;82.60;;;;;;5055273;28;20029;-47
2023/05/07 07:16:25;;;;;;;12.88;10.40;;;10.90;82.60;;;;;;5060429;28;20016;-47
2023/05/07 07:18:52;;;;;;;11.15;9.98;;;10.90;82.40;;;;;;5076522;28;20047;-50
2023/05/07 07:21:19;;;;;;;11.98;9.73;;;10.90;82.70;;;;;;5073311;28;20027;-48
2023/05/07 07:23:48;;;;;;;12.68;11.38;;;10.90;82.30;;;;;;5076017;28;20107;-47
2023/05/07 07:26:19;;;;;;;11.18;10.07;;;10.90;82.10;;;;;;5073219;28;20031;-49
2023/05/07 07:28:46;;;;;;;10.88;9.50;;;10.80;82.90;;;;;;5073089;28;20031;-47
2023/05/07 07:31:12;;;;;;;10.60;9.55;;;10.90;82.70;;;;;;5073625;28;20090;-48
2023/05/07 07:33:40;;;;;;;11.50;10.32;;;10.90;82.60;;;;;;5056091;28;20062;-51
2023/05/07 07:36:07;;;;;;;10.68;9.57;;;10.90;82.20;;;;;;5067263;28;20020;-47
2023/05/07 07:38:34;;;;;;;11.48;10.27;;;10.90;82.10;;;;;;5072636;28;20103;-48
2023/05/07 07:41:01;;;;;;;10.32;9.32;;;10.90;81.80;;;;;;5073762;28;20047;-49
2023/05/07 07:43:27;;;;;;;11.10;9.98;;;10.90;82.30;;;;;;5073964;28;20649;-47
2023/05/07 07:45:54;;;;;;;10.57;9.52;;;11.00;82.50;;;;;;5073866;28;20028;-46
2023/05/07 07:48:20;;;;;;;11.48;9.82;;;11.00;82.00;;;;;;5074056;28;20017;-46
2023/05/07 07:50:49;;;;;;;11.65;10.30;;;11.00;81.40;;;;;;5075145;28;20099;-46
2023/05/07 07:53:15;;;;;;;9.67;8.77;;;10.90;81.50;;;;;;5075716;28;20031;-46
2023/05/07 07:55:42;;;;;;;10.98;9.30;;;10.90;81.40;;;;;;5069289;28;20046;-48
2023/05/07 07:58:09;;;;;;;10.43;9.30;;;10.90;81.40;;;;;;5091266;28;20056;-48
2023/05/07 08:00:36;;;;;;;11.40;8.32;;;10.90;81.30;;;;;;5077481;28;20028;-46
2023/05/07 08:03:09;;;;;;;10.43;9.02;;;10.90;81.90;;;;;;5075947;28;20025;-46
2023/05/07 08:05:38;;;;;;;14.27;8.75;;;11.00;81.70;;;;;;5087190;28;20028;-46
2023/05/07 08:08:05;;;;;;;11.18;9.32;;;11.20;81.30;;;;;;5077037;28;20028;-45
2023/05/07 08:10:34;;;;;;;10.73;9.13;;;11.00;81.20;;;;;;5057713;28;20052;-46
2023/05/07 08:13:06;;;;;;;9.85;8.85;;;11.00;81.00;;;;;;5057683;28;20040;-46
2023/05/07 08:15:33;;;;;;;11.02;9.93;;;11.00;81.20;;;;;;5051566;28;20082;-46
2023/05/07 08:18:02;;;;;;;10.38;8.93;;;11.00;81.50;;;;;;5090944;28;20040;-46
2023/05/07 08:20:30;;;;;;;11.50;9.77;;;11.10;81.60;;;;;;5055229;28;20449;-46
2023/05/07 08:22:56;;;;;;;9.90;8.95;;;11.20;81.30;;;;;;5078809;28;20055;-46
2023/05/07 08:25:23;;;;;;;9.95;8.95;;;11.20;81.20;;;;;;5075486;28;20108;-47
2023/05/07 08:27:50;;;;;;;9.55;8.65;;;11.20;80.90;;;;;;5085004;28;20444;-46
2023/05/07 08:30:17;;;;;;;10.73;9.60;;;11.20;81.10;;;;;;5073388;28;20582;-46
2023/05/07 08:32:43;;;;;;;10.95;9.38;;;11.30;81.20;;;;;;5094720;28;20035;-46
2023/05/07 08:35:10;;;;;;;12.10;9.23;;;11.30;81.30;;;;;;5073424;28;20047;-46
2023/05/07 08:37:40;;;;;;;10.27;9.23;;;11.40;81.90;;;;;;5078620;28;20028;-46
2023/05/07 08:40:07;;;;;;;10.10;8.98;;;11.40;81.30;;;;;;5086403;28;20741;-46
2023/05/07 08:42:39;;;;;;;10.90;9.80;;;11.40;80.80;;;;;;5077212;28;20023;-46
2023/05/07 08:45:10;;;;;;;9.63;8.63;;;11.40;81.00;;;;;;5089219;28;20484;-47
2023/05/07 08:47:46;;;;;;;9.15;8.13;;;11.40;80.50;;;;;;5094490;28;20066;-48
2023/05/07 08:50:13;;;;;;;9.98;8.98;;;11.40;80.80;;;;;;5059149;28;20036;-46
2023/05/07 08:52:40;;;;;;;10.57;9.50;;;11.40;80.70;;;;;;5054489;28;20056;-45
2023/05/07 08:55:09;;;;;;;10.02;7.50;;;11.50;81.30;;;;;;5067364;28;20032;-46
2023/05/07 08:57:36;;;;;;;9.98;8.38;;;11.50;81.40;;;;;;5058687;28;20024;-45
2023/05/07 09:00:06;;;;;;;10.30;9.30;;;11.40;81.30;;;;;;5078281;28;20354;-48
2023/05/07 09:02:36;;;;;;;9.20;7.95;;;11.40;81.80;;;;;;5087222;28;20021;-45
2023/05/07 09:05:03;;;;;;;;;;;11.40;81.70;;;;;;5057263;28;20085;-47
2023/05/07 09:07:30;;;;;;;9.75;8.75;;;11.30;81.40;;;;;;5054260;28;20088;-45
2023/05/07 09:10:01;;;;;;;9.65;8.18;;;11.40;81.60;;;;;;5054354;28;20063;-46
2023/05/07 09:12:28;;;;;;;13.90;7.60;;;11.50;82.60;;;;;;5075023;28;20369;-46
2023/05/07 09:14:54;;;;;;;8.75;7.78;;;11.70;81.70;;;;;;5091244;28;20548;-46
2023/05/07 09:17:19;;;;;;;8.00;7.20;;;11.70;80.90;;;;;;5056012;28;20029;-47
2023/05/07 09:19:47;;;;;;;9.05;8.05;;;11.90;80.90;;;;;;5052958;28;20055;-46
2023/05/07 09:22:14;;;;;;;8.45;6.43;;;11.90;80.50;;;;;;5053685;28;20097;-48
2023/05/07 09:24:50;;;;;;;8.88;7.28;;;12.10;80.90;;;;;;5085571;28;20036;-46
2023/05/07 09:27:20;;;;;;;7.60;6.78;;;12.20;79.30;;;;;;5054761;28;20627;-47
2023/05/07 09:29:47;;;;;;;12.90;7.22;;;12.20;78.60;;;;;;5069378;28;20025;-46
2023/05/07 09:32:17;;;;;;;7.65;6.85;;;12.20;78.80;;;;;;5067039;28;20040;-46
2023/05/07 09:34:44;;;;;;;7.22;6.53;;;12.30;79.20;;;;;;5089105;28;20031;-48
2023/05/07 09:37:12;;;;;;;9.38;6.82;;;12.40;78.40;;;;;;5075815;28;20017;-50
2023/05/07 09:39:57;;;;;;;8.25;7.43;;;12.30;78.00;;;;;;5056973;28;20047;-46
2023/05/07 09:42:26;;;;;;;8.30;7.00;;;12.40;77.80;;;;;;5086985;28;20028;-47
2023/05/07 09:44:53;;;;;;;7.00;6.30;;;12.40;78.60;;;;;;5092031;28;20464;-46
2023/05/07 09:47:24;;;;;;;7.97;6.88;;;12.40;77.80;;;;;;5062273;28;20024;-47
2023/05/07 09:49:56;;;;;;;9.18;7.32;;;12.40;77.80;;;;;;5071124;28;20058;-46
2023/05/07 09:52:33;;;;;;;8.45;7.55;;;12.50;77.50;;;;;;5073122;28;20099;-47
2023/05/07 09:55:00;;;;;;;8.63;7.45;;;12.40;78.00;;;;;;5062525;28;20462;-47
2023/05/07 09:57:28;;;;;;;8.10;7.30;;;12.40;78.60;;;;;;5063358;28;20035;-48
2023/05/07 10:00:01;;;;;;;8.35;7.40;;;12.30;78.90;;;;;;5072777;28;20023;-46
2023/05/07 10:02:30;;;;;;;8.77;7.47;;;12.40;79.80;;;;;;5069321;28;20031;-46
2023/05/07 10:05:00;;;;;;;10.82;7.80;;;12.40;79.30;;;;;;5076263;28;20028;-45
2023/05/07 10:07:28;;;;;;;10.35;9.18;;;12.30;79.30;;;;;;5057793;28;20389;-44
2023/05/07 10:09:56;;;;;;;10.70;8.57;;;12.40;80.30;;;;;;5070918;28;20076;-45
2023/05/07 10:12:23;;;;;;;9.93;8.88;;;12.30;81.10;;;;;;5074283;28;20038;-45
2023/05/07 10:14:52;;;;;;;9.73;8.73;;;12.20;81.20;;;;;;5067082;28;20072;-44
2023/05/07 10:17:23;;;;;;;9.88;8.88;;;12.30;81.70;;;;;;5072532;28;20036;-45
2023/05/07 10:19:53;;;;;;;12.50;9.23;;;12.30;82.20;;;;;;5070959;28;20039;-42
2023/05/07 10:22:21;;;;;;;10.23;9.20;;;12.20;81.40;;;;;;5069780;28;20099;-44
2023/05/07 10:24:52;;;;;;;9.48;8.48;;;12.20;82.50;;;;;;5055003;28;20048;-45
2023/05/07 10:27:20;;;;;;;10.43;9.32;;;12.30;83.30;;;;;;5059352;28;20035;-42
2023/05/07 10:30:18;;;;;;;12.57;10.15;;;12.30;82.80;;;;;;5080301;28;20180;-42
2023/05/07 10:32:56;;;;;;;11.90;10.40;;;12.10;82.90;;;;;;5091457;28;20036;-44
2023/05/07 10:35:29;;;;;;;11.20;10.10;;;12.20;83.00;;;;;;5056766;28;20057;-42
2023/05/07 10:37:58;;;;;;;10.80;9.68;;;12.20;82.40;;;;;;5035470;28;20025;-42
2023/05/07 10:40:25;;;;;;;11.23;10.02;;;12.30;82.60;;;;;;5055789;28;20423;-42
2023/05/07 10:43:00;;;;;;;10.77;9.63;;;12.40;82.10;;;;;;5052792;28;20029;-45
2023/05/07 10:45:26;;;;;;;10.20;8.63;;;12.40;81.50;;;;;;5041756;28;20508;-44
2023/05/07 10:48:18;;;;;;;10.35;8.82;;;12.50;82.00;;;;;;5070033;28;20036;-43
2023/05/07 10:50:46;;;;;;;9.80;8.80;;;12.60;81.60;;;;;;5072228;28;20028;-42
2023/05/07 10:53:30;;;;;;;9.52;8.45;;;12.60;81.60;;;;;;5070896;28;20512;-42
2023/05/07 10:56:25;;;;;;;9.52;8.15;;;12.70;81.40;;;;;;5065683;28;20032;-42
2023/05/07 10:58:52;;;;;;;9.93;8.93;;;12.70;80.10;;;;;;5070261;28;20071;-43
2023/05/07 11:01:57;;;;;;;10.07;7.93;;;12.80;81.40;;;;;;5067195;28;20047;-44
2023/05/07 11:04:27;;;;;;;9.68;8.68;;;13.00;81.20;;;;;;5054248;28;20415;-43
2023/05/07 11:07:20;;;;;;;11.10;8.10;;;13.10;80.10;;;;;;5080853;28;20402;-43
2023/05/07 11:09:58;;;;;;;11.93;9.40;;;13.30;80.20;;;;;;5066386;28;20151;-45
2023/05/07 11:12:38;;;;;;;11.32;9.15;;;13.30;79.50;;;;;;5053776;28;20024;-44
2023/05/07 11:15:12;;;;;;;11.02;8.93;;;13.30;79.60;;;;;;5071306;28;20035;-45
2023/05/07 11:17:59;;;;;;;9.63;8.65;;;13.40;80.10;;;;;;5051204;28;20035;-45
2023/05/07 11:20:55;;;;;;;10.82;8.43;;;13.40;80.20;;;;;;5054602;28;20040;-45
2023/05/07 11:23:37;;;;;;;10.98;8.65;;;13.50;80.50;;;;;;5069947;28;20031;-45
2023/05/07 11:26:21;;;;;;;10.98;8.80;;;13.50;79.50;;;;;;5056691;28;20341;-45
2023/05/07 11:28:48;;;;;;;10.35;9.25;;;13.60;78.40;;;;;;5070993;28;20019;-45
2023/05/07 11:31:21;;;;;;;10.32;9.23;;;13.60;78.30;;;;;;5072258;28;20056;-45
2023/05/07 11:33:48;;;;;;;12.60;8.63;;;13.60;79.30;;;;;;5069561;28;20130;-48
2023/05/07 11:36:16;;;;;;;8.80;7.88;;;13.50;78.00;;;;;;5069585;28;20496;-45
2023/05/07 11:38:43;;;;;;;10.00;8.88;;;13.50;78.00;;;;;;5053892;28;20033;-48
2023/05/07 11:41:13;;;;;;;10.13;9.10;;;13.50;78.30;;;;;;5070971;28;20028;-46
2023/05/07 11:43:57;;;;;;;10.55;9.25;;;13.60;78.40;;;;;;5070511;28;20070;-46
2023/05/07 11:46:24;;;;;;;10.13;8.95;;;13.40;78.60;;;;;;5070293;28;20056;-46
2023/05/07 11:49:26;;;;;;;11.80;10.02;;;13.60;79.10;;;;;;5049579;28;20543;-46
2023/05/07 11:51:53;;;;;;;10.30;9.10;;;13.80;79.10;;;;;;5054793;28;20054;-47
2023/05/07 11:54:22;;;;;;;9.52;8.55;;;14.10;78.20;;;;;;5056234;28;20028;-48
2023/05/07 11:56:49;;;;;;;9.93;8.93;;;14.40;76.50;;;;;;5075056;28;20040;-47
2023/05/07 11:59:19;;;;;;;9.43;7.65;;;14.40;76.00;;;;;;5073475;28;20100;-50
2023/05/07 12:01:47;;;;;;;;;;;14.70;76.10;;;;;;5078751;28;20068;-47
2023/05/07 12:04:18;;;;;;;9.05;8.10;;;15.20;75.80;;;;;;5082401;28;20350;-46
2023/05/07 12:06:45;;;;;;;9.13;8.20;;;15.50;74.50;;;;;;5053408;28;20103;-48
2023/05/07 12:09:12;;;;;;;9.07;7.68;;;15.90;72.10;;;;;;5062137;28;20072;-47
2023/05/07 12:11:39;;;;;;;8.45;7.40;;;16.00;71.10;;;;;;5074519;28;20032;-49
2023/05/07 12:14:07;;;;;;;7.53;6.72;;;16.40;71.50;;;;;;5070245;28;20090;-48
2023/05/07 12:16:35;;;;;;;10.52;8.50;;;16.60;70.20;;;;;;5069869;28;20170;-46
2023/05/07 12:19:02;;;;;;;8.57;7.22;;;17.00;70.00;;;;;;5067799;28;20023;-46
2023/05/07 12:21:29;;;;;;;9.82;7.15;;;17.50;69.30;;;;;;5074441;28;20032;-47
2023/05/07 12:23:56;;;;;;;7.57;6.82;;;17.90;67.10;;;;;;5074355;28;20024;-50
2023/05/07 12:26:24;;;;;;;8.18;6.32;;;18.10;65.50;;;;;;5071076;28;20036;-47
2023/05/07 12:28:51;;;;;;;7.53;6.82;;;18.10;67.40;;;;;;5074997;28;20028;-48
2023/05/07 12:31:17;;;;;;;8.25;7.00;;;17.90;64.10;;;;;;5074794;28;20099;-47
2023/05/07 12:33:44;;;;;;;7.70;7.00;;;17.80;65.90;;;;;;5074892;28;20077;-48
2023/05/07 12:36:13;;;;;;;8.63;7.38;;;17.80;65.20;;;;;;5072438;28;20113;-47
2023/05/07 12:38:43;;;;;;;8.25;7.45;;;17.70;66.30;;;;;;5074800;28;20067;-47
2023/05/07 12:41:12;;;;;;;8.48;7.53;;;17.80;66.80;;;;;;5074908;28;20093;-47
2023/05/07 12:43:38;;;;;;;9.55;7.82;;;17.70;66.20;;;;;;5067167;28;20028;-50
2023/05/07 12:46:07;;;;;;;8.25;7.30;;;17.50;66.30;;;;;;5089834;28;20020;-47